createdAt,value
2023-01-19T00:00:55.549Z,9.13
2023-01-19T00:03:22.543Z,8.45
2023-01-19T00:05:49.784Z,10.07
2023-01-19T00:08:17.552Z,10.38
2023-01-19T00:10:53.086Z,10.23
2023-01-19T00:13:20.087Z,10.55
2023-01-19T00:15:47.326Z,10.23
2023-01-19T00:18:14.370Z,9.98
2023-01-19T00:20:41.547Z,9.43
2023-01-19T00:23:09.543Z,8.90
2023-01-19T00:25:42.431Z,10.63
2023-01-19T00:28:15.533Z,10.30
2023-01-19T00:30:42.894Z,10.27
2023-01-19T00:33:13.741Z,9.10
2023-01-19T00:35:42.707Z,9.65
2023-01-19T00:38:11.669Z,10.82
2023-01-19T00:40:38.678Z,9.30
2023-01-19T00:43:05.681Z,9.90
2023-01-19T00:45:34.224Z,10.02
2023-01-19T00:48:01.324Z,9.40
2023-01-19T00:50:30.684Z,8.65
2023-01-19T00:53:01.485Z,8.68
2023-01-19T00:55:29.716Z,8.73
2023-01-19T00:57:57.590Z,9.90
2023-01-19T01:00:25.752Z,9.52
2023-01-19T01:02:53.869Z,8.82
2023-01-19T01:05:21.358Z,11.35
2023-01-19T01:07:49.609Z,10.88
2023-01-19T01:10:22.994Z,8.07
2023-01-19T01:13:20.012Z,9.65
2023-01-19T01:15:37.417Z,9.02
2023-01-19T01:18:04.411Z,9.80
2023-01-19T01:20:33.667Z,9.80
2023-01-19T01:23:01.329Z,8.93
2023-01-19T01:25:31.067Z,8.55
2023-01-19T01:27:58.142Z,8.50
2023-01-19T01:30:25.130Z,10.75
2023-01-19T01:32:52.143Z,15.55
2023-01-19T01:35:19.319Z,10.68
2023-01-19T01:37:46.311Z,8.23
2023-01-19T01:40:17.313Z,7.07
2023-01-19T01:42:45.477Z,7.07
2023-01-19T01:45:35.629Z,7.35
2023-01-19T01:48:06.308Z,7.43
2023-01-19T01:50:38.204Z,8.68
2023-01-19T01:53:13.831Z,8.60
2023-01-19T01:55:48.230Z,7.38
2023-01-19T01:58:16.266Z,6.57
2023-01-19T02:01:02.168Z,9.00
2023-01-19T02:03:29.419Z,6.32
2023-01-19T02:06:00.487Z,6.80
2023-01-19T02:09:24.278Z,7.68
2023-01-19T02:12:09.666Z,9.77
2023-01-19T02:14:39.985Z,6.85
2023-01-19T02:17:07.689Z,6.97
2023-01-19T02:19:42.405Z,6.73
2023-01-19T02:22:36.067Z,7.88
2023-01-19T02:25:07.339Z,7.50
2023-01-19T02:27:34.672Z,8.95
2023-01-19T02:30:03.767Z,6.50
2023-01-19T02:32:30.894Z,10.02
2023-01-19T02:34:58.411Z,7.20
2023-01-19T02:37:29.268Z,7.38
2023-01-19T02:40:00.903Z,6.80
2023-01-19T02:42:32.571Z,7.05
2023-01-19T02:44:59.960Z,7.53
2023-01-19T02:47:27.054Z,5.57
2023-01-19T02:50:00.967Z,4.68
2023-01-19T02:52:28.452Z,7.25
2023-01-19T02:55:23.535Z,6.53
2023-01-19T02:57:56.779Z,6.18
2023-01-19T03:01:18.390Z,9.77
2023-01-19T03:04:06.181Z,6.03
2023-01-19T03:07:14.723Z,5.50
2023-01-19T03:10:00.773Z,5.65
2023-01-19T03:12:52.513Z,5.80
2023-01-19T03:15:50.384Z,5.78
2023-01-19T03:18:25.190Z,5.25
2023-01-19T03:20:57.571Z,5.97
2023-01-19T03:23:32.024Z,5.88
2023-01-19T03:26:00.784Z,6.00
2023-01-19T03:28:30.266Z,7.53
2023-01-19T03:31:15.819Z,7.28
2023-01-19T03:33:50.995Z,5.13
2023-01-19T03:36:31.550Z,4.88
2023-01-19T03:39:02.456Z,5.60
2023-01-19T03:41:32.484Z,4.75
2023-01-19T03:44:00.220Z,6.20
2023-01-19T03:46:28.485Z,4.88
2023-01-19T03:48:57.176Z,6.20
2023-01-19T03:51:24.621Z,5.88
2023-01-19T03:53:51.880Z,6.90
2023-01-19T03:56:25.706Z,5.07
2023-01-19T03:58:53.094Z,5.50
2023-01-19T04:01:23.423Z,7.00
2023-01-19T04:03:52.554Z,5.20
2023-01-19T04:06:21.457Z,7.13
2023-01-19T04:08:50.338Z,5.90
2023-01-19T04:11:17.586Z,6.55
2023-01-19T04:13:44.978Z,5.80
2023-01-19T04:16:12.597Z,7.60
2023-01-19T04:18:40.739Z,5.72
2023-01-19T04:21:08.354Z,6.55
2023-01-19T04:23:35.349Z,6.53
2023-01-19T04:26:06.419Z,5.60
2023-01-19T04:28:34.992Z,4.32
2023-01-19T04:31:02.020Z,8.83
2023-01-19T04:33:29.315Z,4.65
2023-01-19T04:35:56.865Z,3.95
2023-01-19T04:38:25.819Z,3.67
2023-01-19T04:40:54.216Z,4.57
2023-01-19T04:43:22.365Z,3.78
2023-01-19T04:45:49.905Z,5.15
2023-01-19T04:48:18.580Z,4.65
2023-01-19T04:50:46.045Z,3.10
2023-01-19T04:53:13.911Z,3.15
2023-01-19T04:55:46.875Z,2.78
2023-01-19T04:58:14.044Z,2.53
2023-01-19T05:00:41.143Z,2.55
2023-01-19T05:03:08.299Z,3.63
2023-01-19T05:05:35.491Z,3.15
2023-01-19T05:08:02.587Z,2.65
2023-01-19T05:10:29.669Z,5.60
2023-01-19T05:12:56.832Z,3.97
2023-01-19T05:15:23.973Z,5.28
2023-01-19T05:17:50.976Z,6.23
2023-01-19T05:20:18.644Z,5.63
2023-01-19T05:22:52.727Z,6.43
2023-01-19T05:25:20.031Z,5.45
2023-01-19T05:27:47.282Z,6.00
2023-01-19T05:30:16.378Z,7.25
2023-01-19T05:32:43.536Z,7.70
2023-01-19T05:35:10.697Z,7.65
2023-01-19T05:37:37.685Z,8.27
2023-01-19T05:40:05.552Z,6.53
2023-01-19T05:42:33.013Z,7.35
2023-01-19T05:45:00.313Z,8.13
2023-01-19T05:47:30.280Z,8.90
2023-01-19T05:49:57.633Z,10.60
2023-01-19T05:52:27.463Z,10.77
2023-01-19T05:54:55.200Z,9.63
2023-01-19T05:57:22.844Z,8.37
2023-01-19T05:59:50.112Z,10.75
2023-01-19T06:02:17.235Z,10.95
2023-01-19T06:04:44.892Z,10.67
2023-01-19T06:07:11.928Z,8.95
2023-01-19T06:09:38.884Z,8.60
2023-01-19T06:12:06.488Z,9.77
2023-01-19T06:14:33.438Z,11.70
2023-01-19T06:17:00.804Z,12.45
2023-01-19T06:19:27.824Z,11.95
2023-01-19T06:21:54.797Z,12.57
2023-01-19T06:24:21.964Z,10.90
2023-01-19T06:26:48.932Z,11.45
2023-01-19T06:29:16.071Z,9.93
2023-01-19T06:31:43.136Z,9.25
2023-01-19T06:34:10.496Z,9.60
2023-01-19T06:36:37.520Z,7.32
2023-01-19T06:39:06.124Z,11.27
2023-01-19T06:41:34.149Z,9.98
2023-01-19T06:44:02.213Z,9.00
2023-01-19T06:46:29.870Z,9.82
2023-01-19T06:48:57.281Z,4.18
2023-01-19T06:51:25.528Z,4.15
2023-01-19T06:53:52.591Z,5.10
2023-01-19T06:56:19.581Z,5.20
2023-01-19T06:58:48.499Z,5.63
2023-01-19T07:01:15.541Z,5.35
2023-01-19T07:03:42.754Z,4.05
2023-01-19T07:06:10.092Z,5.03
2023-01-19T07:08:38.611Z,4.63
2023-01-19T07:11:25.419Z,4.68
2023-01-19T07:13:56.381Z,4.70
2023-01-19T07:16:23.928Z,4.57
2023-01-19T07:18:51.463Z,3.85
2023-01-19T07:21:19.245Z,4.82
2023-01-19T07:23:49.749Z,5.27
2023-01-19T07:26:19.906Z,4.68
2023-01-19T07:28:48.362Z,5.07
2023-01-19T07:31:16.251Z,4.95
2023-01-19T07:33:43.404Z,5.32
2023-01-19T07:36:11.156Z,5.13
2023-01-19T07:38:38.206Z,5.00
2023-01-19T07:41:09.251Z,3.25
2023-01-19T07:43:36.341Z,4.65
2023-01-19T07:46:05.820Z,4.40
2023-01-19T07:48:33.080Z,4.28
2023-01-19T07:51:05.630Z,5.13
2023-01-19T07:53:32.991Z,5.38
2023-01-19T07:56:00.006Z,6.22
2023-01-19T07:58:27.067Z,3.78
2023-01-19T08:00:54.420Z,4.85
2023-01-19T08:03:21.453Z,3.75
2023-01-19T08:05:53.166Z,4.78
2023-01-19T08:08:20.582Z,5.45
2023-01-19T08:10:51.499Z,4.00
2023-01-19T08:13:18.723Z,4.55
2023-01-19T08:15:48.805Z,3.78
2023-01-19T08:18:15.829Z,4.13
2023-01-19T08:20:42.863Z,3.97
2023-01-19T08:23:10.599Z,3.08
2023-01-19T08:25:44.472Z,4.63
2023-01-19T08:28:14.851Z,3.80
2023-01-19T08:30:44.360Z,5.57
2023-01-19T08:33:12.883Z,3.50
2023-01-19T08:35:47.462Z,4.43
2023-01-19T08:38:14.714Z,3.13
2023-01-19T08:40:42.754Z,4.72
2023-01-19T08:43:16.091Z,3.22
2023-01-19T08:45:49.828Z,4.32
2023-01-19T08:48:22.409Z,5.40
2023-01-19T08:50:51.025Z,2.60
2023-01-19T08:53:21.089Z,4.93
2023-01-19T08:55:48.087Z,3.65
2023-01-19T08:58:15.380Z,3.90
2023-01-19T09:00:42.574Z,3.90
2023-01-19T09:03:13.481Z,4.00
2023-01-19T09:05:41.035Z,4.15
2023-01-19T09:08:11.046Z,2.75
2023-01-19T09:10:39.620Z,4.68
2023-01-19T09:13:10.974Z,2.45
2023-01-19T09:15:39.596Z,3.33
2023-01-19T09:18:12.103Z,3.70
2023-01-19T09:20:43.453Z,3.97
2023-01-19T09:23:12.939Z,3.65
2023-01-19T09:25:42.015Z,3.72
2023-01-19T09:28:11.295Z,4.15
2023-01-19T09:30:40.818Z,4.45
2023-01-19T09:33:16.868Z,3.60
2023-01-19T09:35:47.019Z,3.67
2023-01-19T09:38:16.823Z,2.58
2023-01-19T09:40:51.856Z,2.83
2023-01-19T09:43:53.084Z,3.38
2023-01-19T09:46:41.697Z,3.22
2023-01-19T09:49:25.339Z,3.85
2023-01-19T09:51:52.598Z,3.10
2023-01-19T09:54:36.704Z,3.45
2023-01-19T09:57:09.687Z,3.23
2023-01-19T09:59:37.189Z,3.60
2023-01-19T10:02:18.748Z,2.75
2023-01-19T10:05:27.471Z,3.95
2023-01-19T10:08:44.489Z,3.63
2023-01-19T10:11:52.578Z,3.80
2023-01-19T10:14:43.429Z,4.07
2023-01-19T10:18:01.291Z,2.83
2023-01-19T10:20:35.336Z,2.47
2023-01-19T10:23:14.609Z,3.65
2023-01-19T10:25:42.057Z,3.35
2023-01-19T10:28:11.350Z,2.58
2023-01-19T10:30:38.726Z,3.67
2023-01-19T10:33:05.690Z,4.72
2023-01-19T10:35:32.724Z,3.47
2023-01-19T10:38:02.770Z,3.35
2023-01-19T10:40:52.104Z,3.78
2023-01-19T10:43:34.383Z,2.78
2023-01-19T10:46:06.176Z,4.03
2023-01-19T10:48:42.099Z,3.38
2023-01-19T10:51:11.136Z,2.85
2023-01-19T10:53:38.370Z,2.90
2023-01-19T10:56:25.036Z,2.88
2023-01-19T10:58:52.299Z,2.53
2023-01-19T11:01:28.359Z,2.95
2023-01-19T11:04:05.633Z,3.05
2023-01-19T11:06:36.639Z,2.90
2023-01-19T11:09:15.861Z,4.27
2023-01-19T11:11:52.291Z,2.60
2023-01-19T11:14:23.026Z,2.80
2023-01-19T11:16:58.357Z,2.97
2023-01-19T11:19:32.345Z,3.13
2023-01-19T11:22:22.850Z,3.15
2023-01-19T11:24:50.286Z,2.67
2023-01-19T11:27:20.354Z,3.28
2023-01-19T11:30:18.359Z,3.05
2023-01-19T11:32:46.858Z,2.83
2023-01-19T11:35:38.959Z,3.90
2023-01-19T11:38:23.149Z,2.90
2023-01-19T11:40:57.223Z,3.22
2023-01-19T11:43:39.799Z,3.75
2023-01-19T11:46:15.291Z,3.80
2023-01-19T11:49:08.407Z,3.50
2023-01-19T11:51:56.610Z,2.25
2023-01-19T11:54:31.428Z,3.00
2023-01-19T11:57:00.742Z,1.92
2023-01-19T11:59:28.483Z,2.72
2023-01-19T12:02:00.825Z,2.40
2023-01-19T12:04:39.103Z,4.53
2023-01-19T12:07:10.679Z,5.13
2023-01-19T12:09:47.402Z,2.50
2023-01-19T12:12:33.683Z,4.35
2023-01-19T12:15:22.792Z,3.42
2023-01-19T12:17:53.658Z,2.60
2023-01-19T12:20:52.897Z,3.33
2023-01-19T12:23:32.384Z,2.70
2023-01-19T12:26:53.290Z,3.75
2023-01-19T12:29:23.772Z,3.40
2023-01-19T12:32:16.748Z,3.40
2023-01-19T12:34:51.975Z,2.45
2023-01-19T12:37:28.830Z,1.80
2023-01-19T12:39:59.443Z,3.33
2023-01-19T12:42:27.319Z,3.10
2023-01-19T12:45:27.632Z,3.08
2023-01-19T12:47:55.924Z,2.65
2023-01-19T12:50:29.645Z,1.98
2023-01-19T12:53:02.115Z,2.33
2023-01-19T12:55:33.297Z,3.90
2023-01-19T12:58:02.395Z,2.72
2023-01-19T13:00:36.803Z,2.97
2023-01-19T13:03:19.069Z,2.50
2023-01-19T13:05:54.668Z,2.57
2023-01-19T13:08:25.434Z,3.80
2023-01-19T13:11:05.504Z,3.80
2023-01-19T13:13:41.209Z,2.83
2023-01-19T13:16:20.149Z,3.72
2023-01-19T13:19:15.772Z,2.72
2023-01-19T13:21:48.755Z,3.38
2023-01-19T13:24:23.183Z,3.88
2023-01-19T13:26:50.018Z,1.70
2023-01-19T13:29:35.090Z,3.23
2023-01-19T13:32:24.236Z,2.15
2023-01-19T13:35:01.867Z,2.72
2023-01-19T13:37:40.437Z,3.50
2023-01-19T13:40:16.002Z,4.35
2023-01-19T13:42:44.016Z,3.90
2023-01-19T13:45:25.524Z,3.17
2023-01-19T13:47:54.959Z,4.68
2023-01-19T13:50:32.320Z,5.82
2023-01-19T13:53:00.164Z,4.65
2023-01-19T13:55:30.441Z,3.13
2023-01-19T13:57:58.212Z,4.63
2023-01-19T14:00:29.950Z,4.22
2023-01-19T14:03:18.573Z,3.80
2023-01-19T14:05:45.704Z,3.93
2023-01-19T14:08:15.406Z,5.13
2023-01-19T14:10:54.082Z,4.10
2023-01-19T14:13:29.405Z,4.68
2023-01-19T14:16:00.536Z,3.97
2023-01-19T14:18:33.419Z,5.68
2023-01-19T14:21:07.775Z,4.65
2023-01-19T14:23:52.587Z,4.93
2023-01-19T14:26:38.040Z,3.65
2023-01-19T14:31:47.655Z,3.67
2023-01-19T14:34:45.474Z,3.53
2023-01-19T14:37:28.999Z,3.60
2023-01-19T14:40:10.805Z,3.87
2023-01-19T14:42:42.396Z,4.85
2023-01-19T14:45:21.142Z,4.82
2023-01-19T14:48:12.239Z,4.88
2023-01-19T14:50:51.059Z,4.37
2023-01-19T14:53:30.280Z,4.47
2023-01-19T14:56:04.642Z,3.22
2023-01-19T14:58:35.480Z,5.43
2023-01-19T15:01:03.041Z,4.10
2023-01-19T15:03:43.364Z,4.20
2023-01-19T15:06:19.037Z,5.50
2023-01-19T15:08:47.030Z,3.30
2023-01-19T15:11:35.928Z,6.67
2023-01-19T15:14:03.512Z,5.78
2023-01-19T15:16:34.263Z,3.35
2023-01-19T15:19:01.525Z,4.88
2023-01-19T15:21:28.500Z,5.10
2023-01-19T15:23:56.298Z,3.95
2023-01-19T15:26:26.127Z,4.30
2023-01-19T15:28:56.160Z,4.55
2023-01-19T15:31:25.498Z,3.78
2023-01-19T15:33:52.507Z,4.28
2023-01-19T15:36:22.310Z,3.97
2023-01-19T15:38:52.084Z,4.78
2023-01-19T15:41:27.839Z,4.20
2023-01-19T15:43:54.809Z,7.40
2023-01-19T15:46:23.776Z,3.10
2023-01-19T15:48:51.662Z,2.80
2023-01-19T15:51:22.555Z,3.92
2023-01-19T15:53:50.041Z,5.20
2023-01-19T15:56:21.104Z,4.00
2023-01-19T15:58:48.499Z,6.70
2023-01-19T16:01:18.523Z,21.80
2023-01-19T16:03:46.138Z,19.92
2023-01-19T16:06:13.837Z,19.63
2023-01-19T16:08:41.183Z,17.70
2023-01-19T16:11:11.506Z,19.42
2023-01-19T16:13:39.459Z,17.30
2023-01-19T16:16:17.235Z,18.50
2023-01-19T16:18:44.737Z,19.05
2023-01-19T16:21:12.189Z,19.42
2023-01-19T16:23:39.383Z,21.13
2023-01-19T16:26:22.369Z,15.55
2023-01-19T16:28:49.386Z,16.05
2023-01-19T16:31:16.726Z,16.13
2023-01-19T16:33:45.915Z,15.13
2023-01-19T16:36:30.760Z,16.63
2023-01-19T16:39:13.335Z,16.50
2023-01-19T16:41:41.657Z,14.98
2023-01-19T16:44:11.574Z,16.80
2023-01-19T16:46:43.429Z,15.68
